Terminal Aerodrome Forecast
Issued by NWS San Angelo, TX

Home | Current Version | Previous Version | Text Only | Print | Product List | Glossary On
Versions: 1 2 3 4 5 6 7 8 9 10 11 12 13
000
FTUS44 KSJT 012300
TAFSJT
TAF
KSJT 012324Z 0200/0224 18010KT P6SM SCT200
     FM021200 19010G16KT P6SM BKN016
     FM021500 21013G20KT P6SM SCT025
     FM022100 27014G20KT P6SM SCT120=

USA.gov is the U.S. government's official web portal to all federal, state and local government web resources and services.